sensor_id;sensor_type;location;lat;lon;timestamp;pressure;altitude;pressure_sealevel;temperature;humidity
71774;BME280;59607;52.130;5.430;2023-05-02T00:01:09;102105.72;;;11.40;100.00
71774;BME280;59607;52.130;5.430;2023-05-02T00:03:35;102102.97;;;11.41;100.00
71774;BME280;59607;52.130;5.430;2023-05-02T00:06:05;102111.53;;;11.43;100.00
71774;BME280;59607;52.130;5.430;2023-05-02T00:08:34;102101.03;;;11.43;100.00
71774;BME280;59607;52.130;5.430;2023-05-02T00:11:01;102096.59;;;11.44;100.00
71774;BME280;59607;52.130;5.430;2023-05-02T00:13:28;102102.25;;;11.39;100.00
71774;BME280;59607;52.130;5.430;2023-05-02T00:15:54;102096.72;;;11.42;100.00
71774;BME280;59607;52.130;5.430;2023-05-02T00:18:21;102109.88;;;11.42;100.00
71774;BME280;59607;52.130;5.430;2023-05-02T00:20:58;102103.66;;;11.43;100.00
71774;BME280;59607;52.130;5.430;2023-05-02T00:23:24;102093.00;;;11.45;100.00
71774;BME280;59607;52.130;5.430;2023-05-02T00:25:51;102109.88;;;11.42;100.00
71774;BME280;59607;52.130;5.430;2023-05-02T00:28:17;102107.25;;;11.42;100.00
71774;BME280;59607;52.130;5.430;2023-05-02T00:30:44;102112.22;;;11.45;100.00
71774;BME280;59607;52.130;5.430;2023-05-02T00:33:12;102116.38;;;11.48;100.00
71774;BME280;59607;52.130;5.430;2023-05-02T00:35:57;102113.19;;;11.44;100.00
71774;BME280;59607;52.130;5.430;2023-05-02T00:38:29;102114.97;;;11.44;100.00
71774;BME280;59607;52.130;5.430;2023-05-02T00:40:56;102111.69;;;11.42;100.00
71774;BME280;59607;52.130;5.430;2023-05-02T00:43:30;102108.78;;;11.45;100.00
71774;BME280;59607;52.130;5.430;2023-05-02T00:45:57;102114.31;;;11.42;100.00
71774;BME280;59607;52.130;5.430;2023-05-02T00:48:29;102118.84;;;11.40;100.00
71774;BME280;59607;52.130;5.430;2023-05-02T00:51:02;102123.56;;;11.36;100.00
71774;BME280;59607;52.130;5.430;2023-05-02T00:53:31;102128.53;;;11.39;100.00
71774;BME280;59607;52.130;5.430;2023-05-02T00:55:57;102119.94;;;11.37;100.00
71774;BME280;59607;52.130;5.430;2023-05-02T00:58:24;102127.44;;;11.42;100.00
71774;BME280;59607;52.130;5.430;2023-05-02T01:01:26;102129.38;;;11.40;100.00
71774;BME280;59607;52.130;5.430;2023-05-02T01:12:05;102149.66;;;11.28;100.00
71774;BME280;59607;52.130;5.430;2023-05-02T01:14:41;102143.16;;;11.22;100.00
71774;BME280;59607;52.130;5.430;2023-05-02T01:17:12;102130.97;;;11.21;100.00
71774;BME280;59607;52.130;5.430;2023-05-02T01:19:46;102143.44;;;11.19;100.00
71774;BME280;59607;52.130;5.430;2023-05-02T01:22:17;102145.59;;;11.04;100.00
71774;BME280;59607;52.130;5.430;2023-05-02T01:24:53;102164.09;;;11.02;100.00
71774;BME280;59607;52.130;5.430;2023-05-02T01:27:33;102159.97;;;11.00;100.00
71774;BME280;59607;52.130;5.430;2023-05-02T01:30:03;102159.13;;;10.99;100.00
71774;BME280;59607;52.130;5.430;2023-05-02T01:32:59;102155.53;;;11.00;100.00
71774;BME280;59607;52.130;5.430;2023-05-02T01:35:32;102160.09;;;10.98;100.00
71774;BME280;59607;52.130;5.430;2023-05-02T01:38:06;102162.72;;;10.98;100.00
71774;BME280;59607;52.130;5.430;2023-05-02T01:40:37;102164.31;;;10.89;100.00
71774;BME280;59607;52.130;5.430;2023-05-02T01:43:07;102172.91;;;10.91;100.00
71774;BME280;59607;52.130;5.430;2023-05-02T01:45:37;102166.94;;;10.89;100.00
71774;BME280;59607;52.130;5.430;2023-05-02T01:48:16;102166.94;;;10.89;100.00
71774;BME280;59607;52.130;5.430;2023-05-02T01:50:50;102175.78;;;10.88;100.00
71774;BME280;59607;52.130;5.430;2023-05-02T01:53:17;102190.72;;;10.88;100.00
71774;BME280;59607;52.130;5.430;2023-05-02T01:55:47;102196.09;;;10.86;100.00
71774;BME280;59607;52.130;5.430;2023-05-02T01:58:17;102200.63;;;10.84;100.00
71774;BME280;59607;52.130;5.430;2023-05-02T02:00:47;102202.13;;;10.77;100.00
71774;BME280;59607;52.130;5.430;2023-05-02T02:03:22;102197.81;;;10.76;100.00
71774;BME280;59607;52.130;5.430;2023-05-02T02:05:59;102199.91;;;10.72;100.00
71774;BME280;59607;52.130;5.430;2023-05-02T02:08:26;102197.41;;;10.70;100.00
71774;BME280;59607;52.130;5.430;2023-05-02T02:11:03;102204.31;;;10.71;100.00
71774;BME280;59607;52.130;5.430;2023-05-02T02:13:40;102193.22;;;10.68;100.00
71774;BME280;59607;52.130;5.430;2023-05-02T02:16:09;102200.56;;;10.74;100.00
71774;BME280;59607;52.130;5.430;2023-05-02T02:18:46;102203.66;;;10.79;100.00
71774;BME280;59607;52.130;5.430;2023-05-02T02:21:16;102206.53;;;10.76;100.00
71774;BME280;59607;52.130;5.430;2023-05-02T02:23:53;102215.78;;;10.80;100.00
71774;BME280;59607;52.130;5.430;2023-05-02T02:26:30;102213.16;;;10.80;100.00
71774;BME280;59607;52.130;5.430;2023-05-02T02:28:56;102230.88;;;10.78;100.00
71774;BME280;59607;52.130;5.430;2023-05-02T02:31:23;102229.31;;;10.76;100.00
71774;BME280;59607;52.130;5.430;2023-05-02T02:33:58;102226.69;;;10.76;100.00
71774;BME280;59607;52.130;5.430;2023-05-02T02:39:27;102235.34;;;10.66;99.68
71774;BME280;59607;52.130;5.430;2023-05-02T02:42:11;102238.22;;;10.63;97.58
71774;BME280;59607;52.130;5.430;2023-05-02T02:48:18;102249.75;;;10.51;96.26
71774;BME280;59607;52.130;5.430;2023-05-02T02:51:07;102246.41;;;10.48;96.27
71774;BME280;59607;52.130;5.430;2023-05-02T02:56:25;102247.25;;;10.49;96.06
71774;BME280;59607;52.130;5.430;2023-05-02T02:59:13;102248.31;;;10.46;95.80
71774;BME280;59607;52.130;5.430;2023-05-02T03:01:47;102254.03;;;10.52;95.29
71774;BME280;59607;52.130;5.430;2023-05-02T03:04:20;102258.44;;;10.51;94.97
71774;BME280;59607;52.130;5.430;2023-05-02T03:06:53;102265.47;;;10.51;94.27
71774;BME280;59607;52.130;5.430;2023-05-02T03:09:20;102265.00;;;10.45;94.08
71774;BME280;59607;52.130;5.430;2023-05-02T03:11:51;102265.84;;;10.46;94.21
71774;BME280;59607;52.130;5.430;2023-05-02T03:14:17;102263.13;;;10.47;94.74
71774;BME280;59607;52.130;5.430;2023-05-02T03:16:44;102275.13;;;10.50;94.36
71774;BME280;59607;52.130;5.430;2023-05-02T03:19:20;102282.03;;;10.51;94.45
71774;BME280;59607;52.130;5.430;2023-05-02T03:21:46;102282.75;;;10.53;94.70
71774;BME280;59607;52.130;5.430;2023-05-02T03:24:19;102277.03;;;10.48;95.17
71774;BME280;59607;52.130;5.430;2023-05-02T03:26:47;102274.56;;;10.46;95.62
71774;BME280;59607;52.130;5.430;2023-05-02T03:29:20;102290.63;;;10.42;95.62
71774;BME280;59607;52.130;5.430;2023-05-02T03:31:47;102285.06;;;10.35;95.70
71774;BME280;59607;52.130;5.430;2023-05-02T03:34:13;102290.44;;;10.33;96.23
71774;BME280;59607;52.130;5.430;2023-05-02T03:36:40;102295.41;;;10.36;96.41
71774;BME280;59607;52.130;5.430;2023-05-02T03:39:12;102293.75;;;10.35;96.65
71774;BME280;59607;52.130;5.430;2023-05-02T03:41:38;102297.91;;;10.38;96.39
71774;BME280;59607;52.130;5.430;2023-05-02T03:44:07;102291.00;;;10.37;96.66
71774;BME280;59607;52.130;5.430;2023-05-02T03:46:37;102305.78;;;10.38;96.14
71774;BME280;59607;52.130;5.430;2023-05-02T03:49:03;102304.13;;;10.37;96.19
71774;BME280;59607;52.130;5.430;2023-05-02T03:51:30;102302.72;;;10.33;96.14
71774;BME280;59607;52.130;5.430;2023-05-02T03:54:02;102306.78;;;10.25;96.95
71774;BME280;59607;52.130;5.430;2023-05-02T03:56:30;102313.38;;;10.20;97.51
71774;BME280;59607;52.130;5.430;2023-05-02T03:59:13;102316.94;;;10.19;99.03
71774;BME280;59607;52.130;5.430;2023-05-02T04:01:48;102323.03;;;10.19;98.98
71774;BME280;59607;52.130;5.430;2023-05-02T04:04:15;102320.78;;;10.15;99.88
71774;BME280;59607;52.130;5.430;2023-05-02T04:06:48;102326.38;;;10.10;99.33
71774;BME280;59607;52.130;5.430;2023-05-02T04:09:14;102324.13;;;10.05;97.88
71774;BME280;59607;52.130;5.430;2023-05-02T04:11:46;102327.69;;;10.04;98.11
71774;BME280;59607;52.130;5.430;2023-05-02T04:14:14;102324.47;;;10.12;97.89
71774;BME280;59607;52.130;5.430;2023-05-02T04:16:48;102334.47;;;10.18;97.52
71774;BME280;59607;52.130;5.430;2023-05-02T04:19:23;102334.72;;;10.15;96.21
71774;BME280;59607;52.130;5.430;2023-05-02T04:21:51;102337.47;;;10.14;95.38
71774;BME280;59607;52.130;5.430;2023-05-02T04:24:17;102341.75;;;10.03;94.13
71774;BME280;59607;52.130;5.430;2023-05-02T04:26:44;102343.53;;;10.03;93.50
71774;BME280;59607;52.130;5.430;2023-05-02T04:29:15;102344.50;;;10.02;93.75
71774;BME280;59607;52.130;5.430;2023-05-02T04:31:41;102353.78;;;10.06;92.33
71774;BME280;59607;52.130;5.430;2023-05-02T04:34:08;102353.09;;;10.04;91.91
71774;BME280;59607;52.130;5.430;2023-05-02T04:36:35;102353.22;;;10.02;91.40
71774;BME280;59607;52.130;5.430;2023-05-02T04:39:10;102366.91;;;9.94;91.50
71774;BME280;59607;52.130;5.430;2023-05-02T04:41:39;102383.84;;;9.79;92.88
71774;BME280;59607;52.130;5.430;2023-05-02T04:44:10;102385.16;;;9.73;93.93
71774;BME280;59607;52.130;5.430;2023-05-02T04:46:36;102388.56;;;9.62;93.58
71774;BME280;59607;52.130;5.430;2023-05-02T04:49:11;102391.44;;;9.59;93.45
71774;BME280;59607;52.130;5.430;2023-05-02T04:51:38;102390.00;;;9.55;91.61
71774;BME280;59607;52.130;5.430;2023-05-02T04:54:04;102405.13;;;9.51;90.02
71774;BME280;59607;52.130;5.430;2023-05-02T04:56:37;102412.97;;;9.51;90.11
71774;BME280;59607;52.130;5.430;2023-05-02T04:59:03;102410.81;;;9.45;89.26
71774;BME280;59607;52.130;5.430;2023-05-02T05:01:40;102408.09;;;9.46;90.12
71774;BME280;59607;52.130;5.430;2023-05-02T05:04:06;102409.97;;;9.44;89.95
71774;BME280;59607;52.130;5.430;2023-05-02T05:06:35;102410.59;;;9.48;89.59
71774;BME280;59607;52.130;5.430;2023-05-02T05:09:04;102420.09;;;9.49;89.35
71774;BME280;59607;52.130;5.430;2023-05-02T05:11:31;102425.16;;;9.52;89.12
71774;BME280;59607;52.130;5.430;2023-05-02T05:14:06;102424.78;;;9.57;87.94
71774;BME280;59607;52.130;5.430;2023-05-02T05:16:32;102436.66;;;9.49;86.78
71774;BME280;59607;52.130;5.430;2023-05-02T05:18:59;102426.91;;;9.52;87.03
71774;BME280;59607;52.130;5.430;2023-05-02T05:21:29;102433.47;;;9.57;85.81
71774;BME280;59607;52.130;5.430;2023-05-02T05:23:56;102442.41;;;9.55;86.16
71774;BME280;59607;52.130;5.430;2023-05-02T05:26:22;102440.75;;;9.54;86.59
71774;BME280;59607;52.130;5.430;2023-05-02T05:28:53;102441.56;;;9.54;86.77
71774;BME280;59607;52.130;5.430;2023-05-02T05:31:20;102443.13;;;9.57;86.12
71774;BME280;59607;52.130;5.430;2023-05-02T05:33:50;102463.22;;;9.45;85.57
71774;BME280;59607;52.130;5.430;2023-05-02T05:36:20;102453.44;;;9.35;86.21
71774;BME280;59607;52.130;5.430;2023-05-02T05:38:52;102460.66;;;9.32;86.27
71774;BME280;59607;52.130;5.430;2023-05-02T05:41:21;102461.84;;;9.28;86.53
71774;BME280;59607;52.130;5.430;2023-05-02T05:43:48;102478.50;;;9.26;86.50
71774;BME280;59607;52.130;5.430;2023-05-02T05:46:15;102483.50;;;9.30;85.78
71774;BME280;59607;52.130;5.430;2023-05-02T05:48:47;102483.63;;;9.28;86.24
71774;BME280;59607;52.130;5.430;2023-05-02T05:51:14;102492.69;;;9.35;86.63
71774;BME280;59607;52.130;5.430;2023-05-02T05:53:49;102496.75;;;9.40;86.65
71774;BME280;59607;52.130;5.430;2023-05-02T05:56:15;102504.72;;;9.38;86.02
71774;BME280;59607;52.130;5.430;2023-05-02T05:58:47;102500.84;;;9.44;87.01
71774;BME280;59607;52.130;5.430;2023-05-02T06:01:21;102510.56;;;9.42;86.23
71774;BME280;59607;52.130;5.430;2023-05-02T06:04:03;102508.22;;;9.50;86.23
71774;BME280;59607;52.130;5.430;2023-05-02T06:06:35;102518.09;;;9.46;85.45
71774;BME280;59607;52.130;5.430;2023-05-02T06:09:02;102512.28;;;9.54;85.39
71774;BME280;59607;52.130;5.430;2023-05-02T06:11:38;102513.00;;;9.56;84.15
71774;BME280;59607;52.130;5.430;2023-05-02T06:14:05;102516.28;;;9.71;84.16
71774;BME280;59607;52.130;5.430;2023-05-02T06:16:38;102521.44;;;9.84;83.19
71774;BME280;59607;52.130;5.430;2023-05-02T06:19:06;102525.72;;;9.85;81.81
71774;BME280;59607;52.130;5.430;2023-05-02T06:21:35;102527.38;;;9.86;81.17
71774;BME280;59607;52.130;5.430;2023-05-02T06:24:05;102530.38;;;10.05;80.78
71774;BME280;59607;52.130;5.430;2023-05-02T06:26:32;102539.81;;;10.30;79.11
71774;BME280;59607;52.130;5.430;2023-05-02T06:29:01;102544.69;;;10.23;78.64
71774;BME280;59607;52.130;5.430;2023-05-02T06:31:31;102551.63;;;10.13;77.38
71774;BME280;59607;52.130;5.430;2023-05-02T06:33:58;102546.72;;;10.08;75.64
71774;BME280;59607;52.130;5.430;2023-05-02T06:36:32;102556.38;;;10.08;75.54
71774;BME280;59607;52.130;5.430;2023-05-02T06:38:58;102561.50;;;10.09;75.96
71774;BME280;59607;52.130;5.430;2023-05-02T06:41:28;102561.41;;;10.22;75.29
71774;BME280;59607;52.130;5.430;2023-05-02T06:43:57;102566.88;;;10.19;75.07
71774;BME280;59607;52.130;5.430;2023-05-02T06:46:27;102581.41;;;10.12;74.00
71774;BME280;59607;52.130;5.430;2023-05-02T06:49:02;102582.81;;;10.05;74.30
71774;BME280;59607;52.130;5.430;2023-05-02T06:51:30;102582.06;;;9.91;75.34
71774;BME280;59607;52.130;5.430;2023-05-02T06:54:15;102599.22;;;9.84;75.88
71774;BME280;59607;52.130;5.430;2023-05-02T06:56:53;102593.25;;;9.82;75.62
71774;BME280;59607;52.130;5.430;2023-05-02T06:59:19;102603.84;;;9.80;75.76
71774;BME280;59607;52.130;5.430;2023-05-02T07:01:49;102598.09;;;9.75;76.25
71774;BME280;59607;52.130;5.430;2023-05-02T07:04:15;102610.78;;;9.81;76.26
71774;BME280;59607;52.130;5.430;2023-05-02T07:06:52;102613.03;;;9.86;76.16
71774;BME280;59607;52.130;5.430;2023-05-02T07:09:22;102615.44;;;9.89;76.31
71774;BME280;59607;52.130;5.430;2023-05-02T07:11:53;102616.16;;;10.03;76.56
71774;BME280;59607;52.130;5.430;2023-05-02T07:14:19;102617.41;;;10.10;75.77
71774;BME280;59607;52.130;5.430;2023-05-02T07:16:48;102623.50;;;10.10;75.81
71774;BME280;59607;52.130;5.430;2023-05-02T07:19:17;102625.38;;;10.08;76.36
71774;BME280;59607;52.130;5.430;2023-05-02T07:21:43;102626.22;;;10.20;76.31
71774;BME280;59607;52.130;5.430;2023-05-02T07:24:12;102638.00;;;10.03;72.35
71774;BME280;59607;52.130;5.430;2023-05-02T07:26:42;102651.56;;;9.97;72.53
71774;BME280;59607;52.130;5.430;2023-05-02T07:29:08;102644.31;;;10.00;73.27
71774;BME280;59607;52.130;5.430;2023-05-02T07:31:38;102637.94;;;9.92;73.14
71774;BME280;59607;52.130;5.430;2023-05-02T07:34:07;102642.09;;;9.83;74.63
71774;BME280;59607;52.130;5.430;2023-05-02T07:36:33;102654.28;;;9.95;74.41
71774;BME280;59607;52.130;5.430;2023-05-02T07:39:10;102647.16;;;9.97;73.35
71774;BME280;59607;52.130;5.430;2023-05-02T07:41:36;102642.66;;;10.11;73.32
71774;BME280;59607;52.130;5.430;2023-05-02T07:44:13;102657.03;;;9.94;72.71
71774;BME280;59607;52.130;5.430;2023-05-02T07:46:39;102660.91;;;10.12;72.17
71774;BME280;59607;52.130;5.430;2023-05-02T07:49:09;102654.13;;;10.21;71.13
71774;BME280;59607;52.130;5.430;2023-05-02T07:51:40;102667.88;;;10.25;70.68
71774;BME280;59607;52.130;5.430;2023-05-02T07:54:20;102660.00;;;10.36;70.49
71774;BME280;59607;52.130;5.430;2023-05-02T07:56:47;102661.50;;;10.52;69.90
71774;BME280;59607;52.130;5.430;2023-05-02T07:59:21;102666.28;;;10.58;69.08
71774;BME280;59607;52.130;5.430;2023-05-02T08:01:47;102664.41;;;10.72;69.03
71774;BME280;59607;52.130;5.430;2023-05-02T08:04:17;102672.75;;;10.89;67.95
71774;BME280;59607;52.130;5.430;2023-05-02T08:06:44;102668.81;;;10.83;67.83
71774;BME280;59607;52.130;5.430;2023-05-02T08:09:11;102675.59;;;10.74;67.44
71774;BME280;59607;52.130;5.430;2023-05-02T08:11:43;102677.00;;;10.55;66.47
71774;BME280;59607;52.130;5.430;2023-05-02T08:14:13;102691.75;;;10.45;66.57
71774;BME280;59607;52.130;5.430;2023-05-02T08:16:41;102690.06;;;10.44;66.90
71774;BME280;59607;52.130;5.430;2023-05-02T08:19:11;102691.59;;;10.35;67.35
71774;BME280;59607;52.130;5.430;2023-05-02T08:21:37;102693.53;;;10.44;67.70
71774;BME280;59607;52.130;5.430;2023-05-02T08:24:09;102690.81;;;10.46;67.02
71774;BME280;59607;52.130;5.430;2023-05-02T08:26:36;102693.94;;;10.51;66.41
71774;BME280;59607;52.130;5.430;2023-05-02T08:29:02;102698.03;;;10.67;65.26
71774;BME280;59607;52.130;5.430;2023-05-02T08:31:31;102695.06;;;10.71;65.14
71774;BME280;59607;52.130;5.430;2023-05-02T08:34:01;102701.47;;;10.79;64.30
71774;BME280;59607;52.130;5.430;2023-05-02T08:36:28;102695.44;;;11.13;63.95
71774;BME280;59607;52.130;5.430;2023-05-02T08:39:02;102708.38;;;11.48;62.65
71774;BME280;59607;52.130;5.430;2023-05-02T08:41:29;102713.53;;;11.50;61.17
71774;BME280;59607;52.130;5.430;2023-05-02T08:43:59;102711.84;;;11.49;60.95
71774;BME280;59607;52.130;5.430;2023-05-02T08:46:29;102713.44;;;11.40;59.93
71774;BME280;59607;52.130;5.430;2023-05-02T08:49:01;102717.00;;;11.39;59.29
71774;BME280;59607;52.130;5.430;2023-05-02T08:51:38;102725.13;;;11.36;59.20
71774;BME280;59607;52.130;5.430;2023-05-02T08:54:24;102728.72;;;11.46;58.84
71774;BME280;59607;52.130;5.430;2023-05-02T08:56:55;102716.94;;;11.73;57.55
71774;BME280;59607;52.130;5.430;2023-05-02T08:59:25;102723.56;;;11.56;58.22
71774;BME280;59607;52.130;5.430;2023-05-02T09:02:07;102729.84;;;11.77;58.33
71774;BME280;59607;52.130;5.430;2023-05-02T09:04:40;102725.06;;;11.82;56.34
71774;BME280;59607;52.130;5.430;2023-05-02T09:07:07;102724.47;;;11.78;56.37
71774;BME280;59607;52.130;5.430;2023-05-02T09:09:40;102734.00;;;11.79;55.20
71774;BME280;59607;52.130;5.430;2023-05-02T09:12:07;102734.56;;;11.94;55.83
71774;BME280;59607;52.130;5.430;2023-05-02T09:14:36;102735.44;;;12.28;54.34
71774;BME280;59607;52.130;5.430;2023-05-02T09:17:06;102738.63;;;12.31;54.75
71774;BME280;59607;52.130;5.430;2023-05-02T09:19:32;102735.50;;;12.16;54.63
71774;BME280;59607;52.130;5.430;2023-05-02T09:22:02;102743.25;;;12.06;54.09
71774;BME280;59607;52.130;5.430;2023-05-02T09:24:28;102740.91;;;11.92;52.32
71774;BME280;59607;52.130;5.430;2023-05-02T09:27:03;102745.06;;;12.06;52.64
71774;BME280;59607;52.130;5.430;2023-05-02T09:29:33;102747.06;;;12.14;51.94
71774;BME280;59607;52.130;5.430;2023-05-02T09:32:13;102740.69;;;12.28;51.00
71774;BME280;59607;52.130;5.430;2023-05-02T09:34:39;102744.38;;;12.58;50.91
71774;BME280;59607;52.130;5.430;2023-05-02T09:37:36;102752.25;;;12.37;51.29
71774;BME280;59607;52.130;5.430;2023-05-02T09:40:07;102754.50;;;12.41;49.68
71774;BME280;59607;52.130;5.430;2023-05-02T09:42:40;102750.78;;;12.44;49.73
71774;BME280;59607;52.130;5.430;2023-05-02T09:45:07;102760.59;;;12.42;50.20
71774;BME280;59607;52.130;5.430;2023-05-02T09:47:36;102759.25;;;12.69;48.43
71774;BME280;59607;52.130;5.430;2023-05-02T09:50:03;102753.47;;;12.54;48.85
71774;BME280;59607;52.130;5.430;2023-05-02T09:52:31;102761.94;;;12.57;48.52
71774;BME280;59607;52.130;5.430;2023-05-02T09:55:19;102772.19;;;13.03;48.72
71774;BME280;59607;52.130;5.430;2023-05-02T09:57:49;102762.59;;;12.92;47.77
71774;BME280;59607;52.130;5.430;2023-05-02T10:00:15;102765.50;;;12.68;47.45
71774;BME280;59607;52.130;5.430;2023-05-02T10:02:50;102769.25;;;12.75;47.63
71774;BME280;59607;52.130;5.430;2023-05-02T10:05:18;102765.38;;;13.32;47.53
71774;BME280;59607;52.130;5.430;2023-05-02T10:07:48;102756.63;;;13.22;46.90
71774;BME280;59607;52.130;5.430;2023-05-02T10:10:16;102761.03;;;13.21;46.70
71774;BME280;59607;52.130;5.430;2023-05-02T10:12:43;102764.25;;;13.56;47.23
71774;BME280;59607;52.130;5.430;2023-05-02T10:15:18;102761.63;;;13.76;45.82
71774;BME280;59607;52.130;5.430;2023-05-02T10:17:47;102764.38;;;13.64;47.06
71774;BME280;59607;52.130;5.430;2023-05-02T10:20:22;102775.69;;;13.86;46.49
71774;BME280;59607;52.130;5.430;2023-05-02T10:23:02;102784.44;;;13.14;47.45
71774;BME280;59607;52.130;5.430;2023-05-02T10:25:28;102781.00;;;13.24;47.53
71774;BME280;59607;52.130;5.430;2023-05-02T10:27:55;102782.94;;;13.53;46.72
71774;BME280;59607;52.130;5.430;2023-05-02T10:30:28;102782.06;;;13.74;45.02
71774;BME280;59607;52.130;5.430;2023-05-02T10:32:58;102787.94;;;14.27;45.09
71774;BME280;59607;52.130;5.430;2023-05-02T10:35:38;102793.88;;;13.89;44.54
71774;BME280;59607;52.130;5.430;2023-05-02T10:38:15;102792.53;;;13.54;44.65
71774;BME280;59607;52.130;5.430;2023-05-02T10:40:55;102798.28;;;13.79;44.39
71774;BME280;59607;52.130;5.430;2023-05-02T10:43:25;102787.66;;;13.49;44.99
71774;BME280;59607;52.130;5.430;2023-05-02T10:45:57;102798.03;;;13.92;44.74
71774;BME280;59607;52.130;5.430;2023-05-02T10:48:25;102805.56;;;14.06;43.77
71774;BME280;59607;52.130;5.430;2023-05-02T10:50:59;102790.72;;;14.15;43.48
71774;BME280;59607;52.130;5.430;2023-05-02T10:56:21;102789.66;;;14.96;43.16
71774;BME280;59607;52.130;5.430;2023-05-02T10:58:48;102787.94;;;14.47;43.67
71774;BME280;59607;52.130;5.430;2023-05-02T11:01:38;102793.03;;;13.99;45.12
71774;BME280;59607;52.130;5.430;2023-05-02T11:04:07;102795.88;;;13.66;44.68
71774;BME280;59607;52.130;5.430;2023-05-02T11:11:58;102801.66;;;14.50;43.89
71774;BME280;59607;52.130;5.430;2023-05-02T11:14:47;102801.66;;;14.80;43.02
71774;BME280;59607;52.130;5.430;2023-05-02T11:17:18;102802.38;;;14.23;44.11
71774;BME280;59607;52.130;5.430;2023-05-02T11:24:57;102818.03;;;13.94;43.37
71774;BME280;59607;52.130;5.430;2023-05-02T11:30:08;102807.38;;;14.26;42.57
71774;BME280;59607;52.130;5.430;2023-05-02T11:33:18;102809.06;;;14.37;43.17
71774;BME280;59607;52.130;5.430;2023-05-02T11:35:48;102812.06;;;14.62;43.09
71774;BME280;59607;52.130;5.430;2023-05-02T11:38:18;102816.59;;;15.09;42.31
71774;BME280;59607;52.130;5.430;2023-05-02T11:40:54;102820.28;;;14.88;41.96
71774;BME280;59607;52.130;5.430;2023-05-02T11:43:28;102819.59;;;14.56;42.44
71774;BME280;59607;52.130;5.430;2023-05-02T11:46:05;102811.94;;;14.73;42.21
71774;BME280;59607;52.130;5.430;2023-05-02T11:48:40;102811.78;;;14.95;42.11
71774;BME280;59607;52.130;5.430;2023-05-02T11:51:21;102811.28;;;15.19;41.90
71774;BME280;59607;52.130;5.430;2023-05-02T11:53:48;102819.81;;;15.03;42.75
71774;BME280;59607;52.130;5.430;2023-05-02T11:56:14;102824.19;;;14.44;43.43
71774;BME280;59607;52.130;5.430;2023-05-02T11:58:41;102827.13;;;14.51;45.08
71774;BME280;59607;52.130;5.430;2023-05-02T12:01:13;102818.06;;;14.93;43.47
71774;BME280;59607;52.130;5.430;2023-05-02T12:03:44;102830.44;;;14.83;42.01
71774;BME280;59607;52.130;5.430;2023-05-02T12:06:14;102830.72;;;14.90;42.93
71774;BME280;59607;52.130;5.430;2023-05-02T12:08:44;102829.34;;;15.24;42.46
71774;BME280;59607;52.130;5.430;2023-05-02T12:11:17;102827.31;;;15.08;43.33
71774;BME280;59607;52.130;5.430;2023-05-02T12:13:46;102830.66;;;15.10;42.76
71774;BME280;59607;52.130;5.430;2023-05-02T12:16:13;102834.31;;;14.69;43.03
71774;BME280;59607;52.130;5.430;2023-05-02T12:18:44;102844.06;;;14.19;44.34
71774;BME280;59607;52.130;5.430;2023-05-02T12:21:16;102860.44;;;14.42;43.64
71774;BME280;59607;52.130;5.430;2023-05-02T12:23:43;102865.59;;;14.54;42.57
71774;BME280;59607;52.130;5.430;2023-05-02T12:26:19;102853.09;;;14.56;43.72
71774;BME280;59607;52.130;5.430;2023-05-02T12:28:58;102857.69;;;14.84;42.44
71774;BME280;59607;52.130;5.430;2023-05-02T12:31:28;102866.59;;;14.63;42.71
71774;BME280;59607;52.130;5.430;2023-05-02T12:33:57;102860.31;;;14.54;43.05
71774;BME280;59607;52.130;5.430;2023-05-02T12:36:29;102869.22;;;14.43;42.29
71774;BME280;59607;52.130;5.430;2023-05-02T12:39:00;102851.69;;;14.42;43.06
71774;BME280;59607;52.130;5.430;2023-05-02T12:41:35;102866.59;;;14.53;42.83
71774;BME280;59607;52.130;5.430;2023-05-02T12:44:03;102881.88;;;14.59;42.53
71774;BME280;59607;52.130;5.430;2023-05-02T12:46:30;102882.44;;;14.73;41.52
71774;BME280;59607;52.130;5.430;2023-05-02T12:49:07;102875.03;;;14.76;42.35
71774;BME280;59607;52.130;5.430;2023-05-02T12:51:35;102875.31;;;15.13;40.95
71774;BME280;59607;52.130;5.430;2023-05-02T12:54:21;102873.81;;;14.90;41.73
71774;BME280;59607;52.130;5.430;2023-05-02T12:56:51;102880.47;;;14.55;42.73
71774;BME280;59607;52.130;5.430;2023-05-02T12:59:28;102874.88;;;14.18;43.04
71774;BME280;59607;52.130;5.430;2023-05-02T13:02:00;102872.97;;;14.30;43.08
71774;BME280;59607;52.130;5.430;2023-05-02T13:04:44;102876.84;;;14.96;42.35
71774;BME280;59607;52.130;5.430;2023-05-02T13:07:30;102872.41;;;15.06;41.71
71774;BME280;59607;52.130;5.430;2023-05-02T13:09:57;102868.72;;;15.27;41.12
71774;BME280;59607;52.130;5.430;2023-05-02T13:12:23;102876.41;;;15.10;41.40
71774;BME280;59607;52.130;5.430;2023-05-02T13:14:52;102876.81;;;15.15;41.71
71774;BME280;59607;52.130;5.430;2023-05-02T13:17:22;102875.63;;;14.80;42.18
71774;BME280;59607;52.130;5.430;2023-05-02T13:19:49;102886.53;;;14.26;42.23
71774;BME280;59607;52.130;5.430;2023-05-02T13:22:28;102878.38;;;14.29;42.53
71774;BME280;59607;52.130;5.430;2023-05-02T13:24:58;102885.38;;;13.99;43.25
71774;BME280;59607;52.130;5.430;2023-05-02T13:27:27;102884.00;;;13.94;42.67
71774;BME280;59607;52.130;5.430;2023-05-02T13:29:54;102881.22;;;13.96;42.87
71774;BME280;59607;52.130;5.430;2023-05-02T13:32:26;102886.63;;;13.94;44.07
71774;BME280;59607;52.130;5.430;2023-05-02T13:34:57;102895.09;;;13.88;43.74
71774;BME280;59607;52.130;5.430;2023-05-02T13:37:24;102889.91;;;13.77;43.11
71774;BME280;59607;52.130;5.430;2023-05-02T13:39:56;102887.91;;;14.10;43.54
71774;BME280;59607;52.130;5.430;2023-05-02T13:42:22;102886.28;;;14.39;42.76
71774;BME280;59607;52.130;5.430;2023-05-02T13:44:59;102873.81;;;14.61;43.16